createdAt,value
2023-02-12T07:29:57.637Z,1.70
2023-02-12T07:31:24.334Z,1.63
2023-02-12T07:32:31.950Z,1.40
2023-02-12T07:33:36.774Z,1.58
2023-02-12T07:34:42.562Z,1.95
2023-02-12T07:35:45.630Z,1.40
2023-02-12T07:36:54.844Z,1.90
2023-02-12T07:38:01.698Z,1.98
2023-02-12T07:39:07.803Z,3.47
2023-02-12T07:40:12.726Z,2.13
2023-02-12T07:41:40.136Z,1.85
2023-02-12T07:43:02.946Z,1.65
2023-02-12T07:44:21.914Z,1.63
2023-02-12T07:45:35.359Z,1.48
2023-02-12T07:47:01.956Z,1.60
2023-02-12T07:48:11.252Z,1.60
2023-02-12T07:49:24.797Z,1.90
2023-02-12T07:50:39.256Z,1.52
2023-02-12T07:52:44.154Z,7.75
2023-02-12T07:53:50.447Z,3.10
2023-02-12T07:54:58.042Z,1.75
2023-02-12T07:56:27.085Z,1.40
2023-02-12T07:57:45.149Z,1.92
2023-02-12T07:59:05.747Z,1.83
2023-02-12T08:00:27.068Z,1.70
2023-02-12T08:01:43.835Z,1.70
2023-02-12T08:02:55.669Z,1.77
2023-02-12T08:04:09.020Z,1.70
2023-02-12T08:05:16.876Z,1.90
2023-02-12T08:06:25.710Z,2.00
2023-02-12T08:07:40.055Z,1.52
2023-02-12T08:08:46.302Z,1.55
2023-02-12T08:09:52.012Z,1.90
2023-02-12T08:10:59.228Z,1.70
2023-02-12T08:12:03.248Z,1.60
2023-02-12T08:13:08.496Z,1.80
2023-02-12T08:14:16.442Z,1.40
2023-02-12T08:41:58.836Z,1.67
2023-02-12T08:43:05.925Z,1.55
2023-02-12T08:44:16.885Z,1.75
2023-02-12T08:52:44.091Z,1.58
2023-02-12T08:53:53.623Z,1.40
2023-02-12T08:54:56.288Z,1.85
2023-02-12T08:56:03.893Z,1.73
2023-02-12T09:02:25.043Z,1.80
2023-02-12T09:03:29.352Z,1.98
2023-02-12T09:04:36.629Z,2.10
2023-02-12T09:05:45.651Z,1.83
2023-02-12T10:08:05.010Z,1.73
2023-02-12T10:09:14.771Z,1.45
2023-02-12T10:10:26.155Z,1.45
2023-02-12T10:11:35.893Z,1.40
2023-02-12T10:13:05.530Z,1.30
2023-02-12T10:14:27.629Z,1.48
2023-02-12T10:15:47.334Z,1.60
2023-02-12T10:17:15.966Z,1.00
2023-02-12T10:18:33.717Z,1.15
2023-02-12T10:20:33.194Z,1.30
2023-02-12T10:22:11.515Z,1.20
2023-02-12T10:23:41.582Z,1.30
2023-02-12T10:25:12.652Z,1.42
2023-02-12T10:39:48.448Z,1.42
2023-02-12T10:40:55.560Z,1.40
2023-02-12T10:42:09.911Z,1.40
2023-02-12T10:43:20.896Z,1.70
2023-02-12T10:44:26.910Z,2.20
2023-02-12T10:45:38.147Z,1.85
2023-02-12T10:46:49.422Z,1.60
2023-02-12T10:52:29.532Z,1.55
2023-02-12T10:53:37.640Z,1.33
2023-02-12T10:54:53.416Z,1.77
2023-02-12T10:56:22.159Z,2.35
2023-02-12T10:57:58.732Z,1.50
2023-02-12T10:59:06.903Z,1.45
2023-02-12T11:00:53.406Z,1.42
2023-02-12T11:01:58.216Z,1.58
2023-02-12T11:03:24.990Z,1.45
2023-02-12T11:04:47.158Z,1.40
2023-02-12T11:06:29.037Z,1.17
2023-02-12T11:08:00.955Z,1.60
2023-02-12T11:11:40.864Z,1.00
2023-02-12T11:12:48.791Z,1.45
2023-02-12T11:14:31.729Z,2.03
2023-02-12T11:15:50.503Z,1.25
2023-02-12T11:16:58.729Z,1.40
2023-02-12T11:18:12.306Z,1.40
2023-02-12T11:19:28.735Z,1.40
2023-02-12T11:20:54.266Z,1.02
2023-02-12T11:22:18.959Z,1.17
2023-02-12T11:23:36.708Z,1.23
2023-02-12T11:25:02.201Z,1.50
2023-02-12T11:26:20.770Z,0.90
2023-02-12T11:27:31.146Z,1.23
2023-02-12T11:28:40.781Z,0.93
2023-02-12T11:29:52.392Z,0.95
2023-02-12T11:31:10.214Z,1.20
2023-02-12T11:32:25.181Z,1.20
2023-02-12T11:33:41.081Z,1.10
2023-02-12T11:35:22.065Z,1.25
2023-02-12T11:36:29.063Z,1.10
2023-02-12T13:21:07.895Z,1.40
2023-02-12T13:23:59.221Z,1.30
2023-02-12T13:27:34.500Z,1.52
2023-02-12T13:28:49.447Z,1.17
2023-02-12T13:30:08.156Z,1.30
2023-02-12T13:31:33.995Z,1.42
2023-02-12T13:32:47.020Z,1.45
2023-02-12T13:34:02.549Z,1.40
2023-02-12T13:35:11.990Z,1.63
2023-02-12T13:36:19.206Z,1.60
2023-02-12T13:37:46.733Z,1.50
2023-02-12T13:39:06.349Z,1.63
2023-02-12T13:40:41.502Z,1.33
2023-02-12T13:41:55.634Z,1.50
2023-02-12T13:43:37.476Z,1.48
2023-02-12T13:44:50.249Z,1.60
2023-02-12T13:46:16.029Z,1.90
2023-02-12T13:47:59.030Z,1.55
2023-02-12T13:49:42.242Z,1.55
2023-02-12T13:51:25.414Z,1.48
2023-02-12T13:53:04.642Z,1.65
2023-02-12T14:02:55.949Z,1.80
2023-02-12T14:46:48.900Z,2.38
2023-02-12T14:47:55.574Z,2.53
2023-02-12T14:49:06.591Z,2.50
2023-02-12T14:50:18.736Z,2.17
2023-02-12T14:51:46.502Z,2.00
2023-02-12T14:52:57.120Z,1.88
2023-02-12T14:54:19.284Z,2.70
2023-02-12T14:55:32.040Z,2.10
2023-02-12T14:56:48.890Z,2.03
2023-02-12T14:58:00.628Z,2.00
2023-02-12T14:59:11.702Z,1.75
2023-02-12T15:00:18.404Z,2.20
2023-02-12T15:01:37.214Z,2.42
2023-02-12T15:14:28.576Z,1.90
2023-02-12T15:15:57.407Z,1.95
2023-02-12T15:17:35.538Z,1.85
2023-02-12T15:19:24.395Z,1.63
2023-02-12T15:20:39.705Z,1.88
2023-02-12T15:21:47.044Z,1.55
2023-02-12T15:22:54.988Z,1.83
2023-02-12T15:24:21.546Z,2.40
2023-02-12T15:25:32.126Z,1.67
2023-02-12T15:26:47.654Z,2.15
2023-02-12T15:28:25.426Z,1.50
2023-02-12T15:29:30.607Z,1.90
2023-02-12T15:36:27.490Z,2.20
2023-02-12T15:37:35.021Z,2.25
2023-02-12T15:38:42.751Z,2.30
2023-02-12T15:39:48.164Z,2.05
2023-02-12T15:40:57.675Z,2.05
2023-02-12T15:42:04.355Z,2.03
2023-02-12T15:43:20.428Z,1.90
2023-02-12T15:44:34.311Z,2.10
2023-02-12T15:45:51.195Z,2.08
2023-02-12T15:47:17.366Z,2.13
2023-02-12T15:48:32.908Z,2.10
2023-02-12T15:49:44.629Z,2.20
2023-02-12T15:51:03.507Z,2.30
2023-02-12T15:52:26.796Z,1.85
2023-02-12T15:53:31.529Z,2.00
2023-02-12T15:54:36.138Z,3.45
2023-02-12T15:56:52.400Z,1.77
2023-02-12T15:58:04.261Z,1.92
2023-02-12T15:59:30.580Z,1.80
2023-02-12T16:00:43.366Z,2.03
2023-02-12T16:48:34.678Z,1.67
2023-02-12T16:50:05.039Z,2.75
2023-02-12T16:51:41.151Z,2.35
2023-02-12T16:53:37.462Z,2.15
2023-02-12T16:54:41.942Z,2.28
2023-02-12T16:56:00.015Z,2.70
2023-02-12T16:59:18.068Z,2.30
2023-02-12T17:00:28.793Z,2.35
2023-02-12T17:01:43.667Z,2.17
2023-02-12T17:02:50.961Z,2.80
2023-02-12T17:04:38.768Z,3.25
2023-02-12T17:05:50.289Z,2.72
2023-02-12T17:06:55.421Z,2.80
2023-02-12T17:08:06.286Z,3.50
2023-02-12T17:09:15.560Z,2.85
2023-02-12T17:10:26.776Z,2.88
2023-02-12T17:11:40.491Z,2.70
2023-02-12T17:12:51.704Z,2.83
2023-02-12T17:14:02.470Z,3.28
2023-02-12T17:15:20.398Z,2.55
2023-02-12T17:16:31.148Z,2.70
2023-02-12T17:17:41.888Z,2.53
2023-02-12T17:18:49.801Z,2.22
2023-02-12T17:19:58.142Z,2.50
2023-02-12T17:21:08.835Z,2.63
2023-02-12T17:22:31.317Z,2.50
2023-02-12T17:23:40.488Z,2.28
2023-02-12T17:24:56.511Z,2.88
2023-02-12T17:26:05.435Z,2.90
2023-02-12T17:27:16.609Z,2.60
2023-02-12T17:28:39.182Z,2.55
2023-02-12T17:29:46.849Z,3.08
2023-02-12T17:30:58.236Z,2.80
2023-02-12T17:32:01.334Z,3.70
2023-02-12T17:33:15.765Z,3.28
2023-02-12T17:34:24.373Z,4.05
2023-02-12T17:35:33.750Z,4.40
2023-02-12T17:36:48.547Z,5.00
2023-02-12T17:37:55.754Z,3.88
2023-02-12T17:39:07.833Z,4.88
2023-02-12T17:40:14.008Z,3.80
2023-02-12T17:41:21.272Z,4.30
2023-02-12T17:42:34.374Z,4.40
2023-02-12T17:43:42.069Z,4.22
2023-02-12T17:44:52.627Z,5.00
2023-02-12T17:46:10.781Z,4.13
2023-02-12T17:47:21.934Z,4.03
2023-02-12T17:48:31.160Z,4.82
2023-02-12T17:49:36.156Z,4.18
2023-02-12T17:50:46.426Z,5.05
2023-02-12T17:51:52.802Z,4.60
2023-02-12T17:52:57.051Z,3.58
2023-02-12T17:54:00.283Z,4.43
2023-02-12T17:55:13.966Z,4.32
2023-02-12T17:56:26.587Z,4.07
2023-02-12T17:57:32.194Z,5.57
2023-02-12T17:58:44.384Z,3.97
2023-02-12T17:59:51.005Z,4.32
2023-02-12T18:22:11.840Z,3.55
2023-02-12T18:23:21.521Z,3.40
2023-02-12T18:24:43.419Z,3.40
2023-02-12T18:26:15.470Z,4.00
2023-02-12T18:27:35.540Z,3.30
2023-02-12T18:29:00.423Z,3.78
2023-02-12T18:30:12.516Z,3.17
2023-02-12T18:31:30.747Z,2.80
2023-02-12T18:32:46.960Z,3.25
2023-02-12T18:34:11.252Z,2.80
2023-02-12T18:35:19.546Z,3.05
2023-02-12T18:36:38.160Z,3.90
2023-02-12T18:37:49.027Z,2.45
2023-02-12T18:39:26.483Z,2.60
2023-02-12T18:40:32.895Z,2.80
2023-02-12T18:41:39.889Z,3.00
2023-02-12T18:42:47.604Z,2.60
2023-02-12T18:44:11.455Z,2.53
2023-02-12T18:45:28.741Z,2.38
2023-02-12T18:46:36.717Z,2.65
2023-02-12T18:47:43.678Z,3.08
2023-02-12T18:48:54.630Z,2.40
2023-02-12T18:50:11.358Z,2.53
2023-02-12T18:51:20.444Z,2.92
2023-02-12T18:52:36.144Z,3.17
2023-02-12T18:53:41.320Z,3.17
2023-02-12T18:54:46.685Z,3.33
2023-02-12T18:55:58.234Z,2.70
2023-02-12T19:36:40.650Z,3.47
2023-02-12T19:37:48.999Z,3.85
2023-02-12T19:38:54.912Z,3.78
2023-02-12T19:40:03.662Z,3.63
2023-02-12T19:41:18.604Z,3.45
2023-02-12T19:42:27.529Z,3.53
2023-02-12T19:43:33.126Z,3.80
2023-02-12T19:44:37.179Z,4.05
2023-02-12T19:47:04.934Z,3.85
2023-02-12T19:48:12.143Z,3.63
2023-02-12T19:49:22.035Z,3.90
2023-02-12T19:50:28.666Z,3.92
2023-02-12T19:51:40.884Z,4.35
2023-02-12T19:52:51.136Z,4.10
2023-02-12T19:53:59.340Z,3.85
